Pagina principale
METAR-TAF:

METAR-TAF

Aeroporti :

Harbin, Cina

Aeroporto di Harbin-Taiping

latitudine: 45-45N, longitudine: 126-46E, altezza: 143 m

Osservazione

Il bollettino è stato emesso 23 minuti fa, alle 01:00 UTC
Vento 8 kt da sud/sud-est
Temperature -14°C
Umidità 72%
Pressione 1027 hPa
Visibilità 10 km o più
nessuna nube inferiore a 1500 m e nessun cumulonembo

METAR: ZYHB 250100Z 16004MPS CAVOK M14/M18 Q1027 NOSIG

Ora: 09:23 (01:23 UTC)

Previsione

Il bollettino è stato emesso 6 ore e 12 minuti fa, alle 19:11 UTC
Previsione valida dal 25 alle 00 UTC al 25 alle 24 UTC
Vento 8 kt da sud/sud-est
Visibilità: 4000 m
Poco nuvoloso ad un'altezza di 3300 ft
foschia

TAF: ZYHB 241911Z 2500/2524 15004MPS 4000 HZ FEW033 TXM06/06Z TNM20/21Z

Osservazioni e previsioni meteorologiche di più di 4000 aeroporti (messaggi METAR e TAF).

Le stazioni disponibili sono rappresentate dai dischi gialli e rossi sulla carta.

Puntare il mouse per vedere il nome della stazione.

Clicca sopra per visualizzare le osservazioni e previsioni meteorologiche.

Per cambiare la mappa : fare clic sui pulsanti verdi con una croce nera per ingrandire, il pulsante verde con un trattino per diminuire, o sulla freccia verde per le mappe adiacenti.


METAR-TAF: